Shagang Hongfa — 9V9138 — position and weather

sailwx.info

Track history (hours):
 
Tides and Currents Weather Stations Pressure Air Temp Water Temp Dewpoint Dewpoint Depression Visibility Wind Speed Wind Dir Waves Ship Positions

Shagang Hongfa

Last reported at 2017-Feb-01 08:13 UTC. Time now 2017-Feb-26 10:28 UTC.
Position N 01°18' E 104°04'.
Warning: this ship's position is 25 days out of date.

Length 292 m; draft 7.4 m.

Type: Cargo ship. MMSI: 566178000.

Date/timePositionNaut miles runAvg speedWind from/ knotsBaromVisibWave heightAir tempDewpointWater temp
2017-Feb-01 08:13N 01°18' E 104°04'0 0.1
2017-Feb-01 07:31N 01°18' E 104°04'1 0.4
2017-Feb-01 04:11N 01°17' E 104°03'4 6.2
2017-Feb-01 03:32N 01°17' E 104°07'  
2017-Jan-26 10:29N 22°22' E 119°53'1112.2
2017-Jan-26 09:33N 22°33' E 119°54'1212.0
2017-Jan-26 08:33N 22°45' E 119°55'51311.8
2017-Jan-24 13:16N 31°01' E 122°22'1012.1
2017-Jan-24 12:28N 31°03' E 122°11'1010.7
2017-Jan-24 11:33N 31°05' E 122°00'8 7.7
2017-Jan-24 10:33N 31°09' E 121°52'1211.9
2017-Jan-24 09:33N 31°18' E 121°43'10 9.8
2017-Jan-24 08:34N 31°24' E 121°34'9 9.2
2017-Jan-24 07:33N 31°30' E 121°25'1212.3
2017-Jan-24 06:33N 31°38' E 121°15'1111.1
2017-Jan-24 05:33N 31°45' E 121°05'10 9.4
2017-Jan-24 04:27N 31°50' E 120°54'19 9.5
2017-Jan-24 02:27N 32°00' E 120°35'1212.8
2017-Jan-24 01:33N 31°60' E 120°22'  
Track history (hours):
 
Tides and Currents Weather Stations Pressure Air Temp Water Temp Dewpoint Dewpoint Depression Visibility Wind Speed Wind Dir Waves Ship Positions

Shagang Hongfa

Last reported at 2017-Feb-01 08:13 UTC. Time now 2017-Feb-26 10:28 UTC.
Position N 01°18' E 104°04'.
Warning: this ship's position is 25 days out of date.

Length 292 m; draft 7.4 m.

Type: Cargo ship. MMSI: 566178000.

Date/timePositionNaut miles runAvg speedWind from/ knotsBaromVisibWave heightAir tempDewpointWater temp
2017-Feb-01 08:13N 01°18' E 104°04'0 0.1
2017-Feb-01 07:31N 01°18' E 104°04'1 0.4
2017-Feb-01 04:11N 01°17' E 104°03'4 6.2
2017-Feb-01 03:32N 01°17' E 104°07'  
2017-Jan-26 10:29N 22°22' E 119°53'1112.2
2017-Jan-26 09:33N 22°33' E 119°54'1212.0
2017-Jan-26 08:33N 22°45' E 119°55'51311.8
2017-Jan-24 13:16N 31°01' E 122°22'1012.1
2017-Jan-24 12:28N 31°03' E 122°11'1010.7
2017-Jan-24 11:33N 31°05' E 122°00'8 7.7
2017-Jan-24 10:33N 31°09' E 121°52'1211.9
2017-Jan-24 09:33N 31°18' E 121°43'10 9.8
2017-Jan-24 08:34N 31°24' E 121°34'9 9.2
2017-Jan-24 07:33N 31°30' E 121°25'1212.3
2017-Jan-24 06:33N 31°38' E 121°15'1111.1
2017-Jan-24 05:33N 31°45' E 121°05'10 9.4
2017-Jan-24 04:27N 31°50' E 120°54'19 9.5
2017-Jan-24 02:27N 32°00' E 120°35'1212.8
2017-Jan-24 01:33N 31°60' E 120°22'  

Dump ship's entire track history